createdAt,value
2022-08-05T00:00:22.063Z,41.36
2022-08-05T00:00:48.403Z,41.21
2022-08-05T00:01:20.500Z,41.31
2022-08-05T00:01:50.355Z,41.72
2022-08-05T00:02:14.735Z,42.14
2022-08-05T00:02:38.149Z,42.16
2022-08-05T00:03:06.638Z,42.27
2022-08-05T00:03:37.262Z,41.83
2022-08-05T00:03:59.443Z,41.55
2022-08-05T00:04:21.119Z,41.45
2022-08-05T00:04:43.738Z,41.48
2022-08-05T00:05:07.344Z,41.18
2022-08-05T00:06:04.909Z,41.88
2022-08-05T00:06:33.357Z,42.00
2022-08-05T00:06:57.724Z,42.25
2022-08-05T00:07:59.196Z,41.84
2022-08-05T00:08:05.112Z,42.00
2022-08-05T00:08:35.732Z,42.12
2022-08-05T00:08:57.946Z,42.14
2022-08-05T00:09:19.846Z,42.18
2022-08-05T00:09:43.006Z,42.29
2022-08-05T00:10:06.352Z,42.05
2022-08-05T00:10:30.893Z,42.25
2022-08-05T00:10:52.532Z,42.49
2022-08-05T00:11:30.328Z,42.22
2022-08-05T00:11:59.957Z,42.12
2022-08-05T00:12:21.779Z,42.43
2022-08-05T00:12:55.843Z,42.26
2022-08-05T00:13:18.770Z,42.10
2022-08-05T00:14:28.954Z,42.69
2022-08-05T00:14:51.655Z,42.70
2022-08-05T00:15:54.126Z,42.35
2022-08-05T00:15:58.045Z,42.35
2022-08-05T00:16:35.430Z,42.44
2022-08-05T00:16:58.740Z,42.57
2022-08-05T00:17:23.842Z,42.80
2022-08-05T00:17:47.488Z,42.24
2022-08-05T00:18:09.668Z,42.62
2022-08-05T00:18:48.212Z,42.46
2022-08-05T00:19:10.515Z,43.01
2022-08-05T00:19:33.801Z,42.74
2022-08-05T00:20:06.937Z,42.62
2022-08-05T00:20:29.869Z,42.65
2022-08-05T00:20:52.156Z,42.69
2022-08-05T00:21:16.419Z,42.54
2022-08-05T00:21:39.119Z,42.67
2022-08-05T00:22:04.619Z,42.93
2022-08-05T00:22:26.290Z,42.54
2022-08-05T00:22:57.338Z,42.35
2022-08-05T00:23:44.676Z,42.34
2022-08-05T00:24:11.029Z,42.73
2022-08-05T00:24:38.680Z,42.80
2022-08-05T00:25:04.874Z,43.27
2022-08-05T00:25:45.358Z,43.02
2022-08-05T00:26:09.565Z,42.89
2022-08-05T00:26:31.239Z,42.89
2022-08-05T00:26:53.702Z,43.26
2022-08-05T00:27:16.905Z,42.76
2022-08-05T00:27:39.449Z,43.11
2022-08-05T00:28:04.727Z,42.79
2022-08-05T00:28:29.595Z,42.51
2022-08-05T00:28:52.595Z,42.81
2022-08-05T00:29:14.296Z,42.53
2022-08-05T00:29:38.007Z,42.71
2022-08-05T00:30:03.063Z,43.04
2022-08-05T00:30:29.325Z,43.01
2022-08-05T00:30:53.769Z,42.90
2022-08-05T00:31:15.445Z,42.91
2022-08-05T00:31:53.884Z,42.98
2022-08-05T00:32:19.826Z,43.23
2022-08-05T00:32:41.489Z,42.96
2022-08-05T00:33:04.396Z,43.19
2022-08-05T00:34:53.951Z,43.52
2022-08-05T00:34:55.859Z,43.23
2022-08-05T00:35:05.019Z,43.33
2022-08-05T00:35:33.352Z,43.32
2022-08-05T00:36:16.028Z,42.92
2022-08-05T00:37:11.307Z,42.70
2022-08-05T00:37:20.170Z,42.99
2022-08-05T00:37:53.117Z,43.00
2022-08-05T00:38:15.450Z,42.93
2022-08-05T00:38:51.843Z,42.60
2022-08-05T00:39:14.366Z,42.92
2022-08-05T00:39:44.439Z,43.14
2022-08-05T00:40:26.767Z,43.79
2022-08-05T00:40:53.766Z,42.96
2022-08-05T00:41:27.491Z,43.33
2022-08-05T00:42:09.174Z,42.80
2022-08-05T00:42:32.597Z,42.84
2022-08-05T00:42:54.741Z,42.80
2022-08-05T00:43:17.683Z,43.44
2022-08-05T00:43:47.221Z,43.55
2022-08-05T00:44:11.611Z,44.05
2022-08-05T00:44:33.251Z,43.86
2022-08-05T00:44:56.399Z,43.38
2022-08-05T00:45:28.233Z,43.86
2022-08-05T00:46:00.109Z,43.70
2022-08-05T00:46:36.894Z,43.81
2022-08-05T00:47:05.894Z,43.33
2022-08-05T00:47:31.651Z,43.63
2022-08-05T00:48:11.177Z,43.83
2022-08-05T00:48:32.977Z,43.96
2022-08-05T00:49:14.014Z,43.30
2022-08-05T00:49:44.651Z,43.32
2022-08-05T00:50:13.125Z,43.82
2022-08-05T00:50:35.249Z,43.71
2022-08-05T00:50:58.379Z,43.71
2022-08-05T00:51:51.999Z,43.83
2022-08-05T00:52:02.428Z,44.05
2022-08-05T00:52:28.699Z,43.65
2022-08-05T00:52:51.662Z,43.84
2022-08-05T00:54:00.971Z,43.69
2022-08-05T00:54:04.147Z,43.78
2022-08-05T00:54:28.118Z,43.77
2022-08-05T00:54:51.795Z,43.76
2022-08-05T00:55:13.713Z,43.95
2022-08-05T00:55:42.420Z,43.97
2022-08-05T00:56:05.511Z,43.82
2022-08-05T00:56:29.674Z,43.55
2022-08-05T00:56:53.143Z,43.67
2022-08-05T00:57:14.993Z,43.82
2022-08-05T00:57:58.508Z,43.97
2022-08-05T00:58:21.786Z,43.96
2022-08-05T00:58:49.507Z,43.81
2022-08-05T00:59:11.193Z,43.93
2022-08-05T00:59:34.604Z,43.50
2022-08-05T01:00:10.998Z,43.32
2022-08-05T01:00:32.987Z,43.31
2022-08-05T01:00:55.430Z,43.65
2022-08-05T01:01:24.771Z,43.52
2022-08-05T01:01:59.811Z,43.69
2022-08-05T01:02:24.331Z,43.89
2022-08-05T01:02:46.124Z,43.76
2022-08-05T01:03:08.147Z,44.11
2022-08-05T01:03:34.094Z,43.95
2022-08-05T01:03:55.882Z,43.71
2022-08-05T01:04:20.139Z,43.46
2022-08-05T01:04:48.904Z,43.59
2022-08-05T01:05:13.541Z,43.94
2022-08-05T01:05:35.297Z,43.71
2022-08-05T01:05:56.978Z,43.62
2022-08-05T01:06:19.638Z,43.97
2022-08-05T01:06:41.303Z,43.98
2022-08-05T01:07:05.920Z,43.70
2022-08-05T01:07:35.272Z,44.09
2022-08-05T01:08:30.433Z,43.39
2022-08-05T01:08:43.255Z,43.81
2022-08-05T01:09:08.393Z,43.66
2022-08-05T01:09:30.587Z,43.24
2022-08-05T01:09:55.762Z,43.59
2022-08-05T01:10:20.864Z,43.76
2022-08-05T01:10:53.644Z,43.95
2022-08-05T01:11:21.754Z,43.86
2022-08-05T01:11:49.445Z,43.52
2022-08-05T01:12:18.266Z,43.79
2022-08-05T01:12:54.338Z,43.69
2022-08-05T01:13:58.018Z,43.58
2022-08-05T01:14:28.001Z,43.62
2022-08-05T01:14:56.319Z,43.13
2022-08-05T01:15:35.414Z,43.24
2022-08-05T01:16:01.037Z,43.62
2022-08-05T01:16:31.401Z,43.75
2022-08-05T01:17:00.080Z,43.40
2022-08-05T01:17:29.916Z,43.30
2022-08-05T01:17:58.206Z,43.43
2022-08-05T01:18:25.085Z,43.80
2022-08-05T01:18:56.340Z,43.82
2022-08-05T01:19:56.576Z,43.86
2022-08-05T01:20:27.087Z,43.81
2022-08-05T01:21:02.610Z,43.93
2022-08-05T01:21:44.956Z,43.53
2022-08-05T01:22:27.732Z,43.83
2022-08-05T01:23:15.332Z,43.65
2022-08-05T01:24:03.554Z,43.78
2022-08-05T01:24:50.963Z,43.91
2022-08-05T01:25:53.251Z,43.98
2022-08-05T01:26:44.243Z,43.57
2022-08-05T01:27:22.222Z,43.76
2022-08-05T01:27:59.956Z,43.59
2022-08-05T01:28:27.095Z,43.53
2022-08-05T01:28:54.815Z,43.69
2022-08-05T01:29:22.970Z,43.28
2022-08-05T01:29:48.766Z,43.78
2022-08-05T01:30:18.833Z,43.28
2022-08-05T01:30:55.263Z,43.54
2022-08-05T01:31:24.538Z,43.14
2022-08-05T01:31:49.824Z,43.40
2022-08-05T01:32:18.444Z,43.48
2022-08-05T01:32:45.350Z,43.37
2022-08-05T01:33:09.475Z,43.55
2022-08-05T01:33:35.490Z,43.36
2022-08-05T01:34:03.851Z,43.34
2022-08-05T01:34:28.059Z,43.14
2022-08-05T01:34:55.166Z,42.99
2022-08-05T01:35:50.585Z,43.16
2022-08-05T01:36:13.008Z,42.88
2022-08-05T01:36:47.126Z,42.86
2022-08-05T01:37:18.031Z,42.95
2022-08-05T01:37:52.602Z,43.04
2022-08-05T01:38:24.742Z,42.82
2022-08-05T01:38:50.883Z,42.80
2022-08-05T01:39:34.605Z,42.85
2022-08-05T01:39:59.848Z,43.05
2022-08-05T01:40:28.015Z,42.74
2022-08-05T01:40:53.914Z,42.96
2022-08-05T01:41:21.733Z,42.85
2022-08-05T01:41:47.402Z,43.19
2022-08-05T01:42:13.825Z,42.65
2022-08-05T01:42:39.571Z,42.89
2022-08-05T01:43:04.146Z,42.73
2022-08-05T01:43:29.239Z,42.79
2022-08-05T01:43:52.689Z,43.17
2022-08-05T01:44:15.905Z,42.83
2022-08-05T01:44:40.818Z,43.17
2022-08-05T01:45:04.077Z,43.13
2022-08-05T01:45:34.946Z,42.97
2022-08-05T01:46:07.474Z,43.04
2022-08-05T01:46:42.134Z,42.97
2022-08-05T01:47:07.583Z,42.93
2022-08-05T01:47:39.442Z,42.76
2022-08-05T01:48:03.141Z,43.27
2022-08-05T01:48:35.788Z,43.11
2022-08-05T01:48:59.749Z,43.00
2022-08-05T01:49:25.033Z,42.89
2022-08-05T01:50:00.546Z,43.14
2022-08-05T01:50:28.841Z,43.03
2022-08-05T01:50:54.830Z,42.98
2022-08-05T01:51:18.892Z,43.30
2022-08-05T01:51:41.624Z,42.92
2022-08-05T01:52:17.891Z,43.28
2022-08-05T01:52:43.912Z,43.41
2022-08-05T01:53:10.000Z,43.51
2022-08-05T01:53:57.102Z,43.31
2022-08-05T01:54:25.604Z,43.45
2022-08-05T01:54:54.024Z,43.27
2022-08-05T01:55:17.715Z,43.24
2022-08-05T01:55:43.206Z,43.12
2022-08-05T01:56:06.254Z,43.15
2022-08-05T01:58:10.381Z,43.19
2022-08-05T01:58:29.499Z,43.29
2022-08-05T01:58:30.226Z,43.45
2022-08-05T01:58:52.229Z,43.25
2022-08-05T01:59:18.838Z,43.36
2022-08-05T01:59:47.241Z,43.21
2022-08-05T02:00:12.088Z,43.35
2022-08-05T02:00:37.855Z,43.27
2022-08-05T02:01:01.480Z,43.20
2022-08-05T02:01:25.560Z,43.23
2022-08-05T02:01:54.702Z,43.11
2022-08-05T02:02:19.828Z,43.45
2022-08-05T02:02:56.094Z,43.33
2022-08-05T02:03:29.114Z,43.39
2022-08-05T02:03:57.932Z,43.59
2022-08-05T02:04:22.367Z,43.41
2022-08-05T02:04:49.545Z,43.42
2022-08-05T02:05:14.838Z,43.53
2022-08-05T02:05:40.242Z,43.51
2022-08-05T02:06:33.641Z,43.52
2022-08-05T02:06:49.466Z,43.47
2022-08-05T02:07:11.271Z,43.53
2022-08-05T02:07:56.294Z,43.48
2022-08-05T02:08:30.802Z,43.52
2022-08-05T02:08:58.589Z,43.51
2022-08-05T02:09:21.098Z,43.49
2022-08-05T02:09:43.464Z,43.30
2022-08-05T02:10:09.718Z,43.40
2022-08-05T02:10:41.758Z,43.55
2022-08-05T02:11:08.089Z,43.71
2022-08-05T02:11:48.182Z,43.82
2022-08-05T02:12:22.551Z,43.58
2022-08-05T02:12:52.399Z,43.79
2022-08-05T02:13:19.939Z,43.84
2022-08-05T02:13:53.975Z,43.71
2022-08-05T02:14:26.876Z,43.91
2022-08-05T02:14:54.318Z,43.88
2022-08-05T02:15:24.044Z,43.67
2022-08-05T02:15:50.906Z,43.94
2022-08-05T02:16:22.088Z,43.75
2022-08-05T02:16:52.362Z,43.95
2022-08-05T02:18:27.729Z,44.04
2022-08-05T02:18:33.342Z,44.01
2022-08-05T02:18:56.419Z,44.22
2022-08-05T02:19:25.497Z,44.11
2022-08-05T02:19:53.077Z,44.18
2022-08-05T02:20:20.634Z,44.20
2022-08-05T02:20:48.358Z,44.53
2022-08-05T02:21:15.524Z,44.47
2022-08-05T02:21:46.818Z,44.46
2022-08-05T02:22:25.750Z,44.25
2022-08-05T02:22:55.105Z,44.53
2022-08-05T02:23:22.264Z,44.56
2022-08-05T02:23:48.520Z,44.39
2022-08-05T02:24:18.081Z,44.58
2022-08-05T02:24:41.604Z,44.71
2022-08-05T02:25:08.776Z,44.84
2022-08-05T02:25:49.784Z,44.78
2022-08-05T02:26:17.192Z,44.70
2022-08-05T02:26:53.919Z,44.66
2022-08-05T02:27:19.832Z,44.90
2022-08-05T02:27:59.538Z,44.96
2022-08-05T02:28:29.328Z,44.81
2022-08-05T02:28:55.480Z,44.84
2022-08-05T02:29:26.067Z,45.00
2022-08-05T02:30:06.275Z,45.96
2022-08-05T02:30:34.479Z,45.75
2022-08-05T02:31:00.396Z,45.99
2022-08-05T02:31:28.315Z,46.27
2022-08-05T02:31:51.452Z,46.55
2022-08-05T02:32:24.198Z,46.73
2022-08-05T02:32:54.251Z,47.03
2022-08-05T02:33:24.410Z,46.84
2022-08-05T02:34:01.361Z,48.03
2022-08-05T02:34:25.013Z,48.07
2022-08-05T02:34:55.023Z,47.67
2022-08-05T02:35:27.804Z,48.77
2022-08-05T02:36:00.647Z,48.06
2022-08-05T02:36:27.248Z,48.19
2022-08-05T02:36:53.049Z,48.19
2022-08-05T02:37:16.543Z,48.02
2022-08-05T02:37:40.219Z,48.82
2022-08-05T02:38:03.932Z,48.83
2022-08-05T02:38:35.135Z,50.01
2022-08-05T02:38:58.249Z,49.92
2022-08-05T02:39:23.370Z,49.21
2022-08-05T02:39:47.708Z,48.60
2022-08-05T02:40:14.440Z,48.81
2022-08-05T02:40:37.420Z,49.45
2022-08-05T02:40:59.698Z,49.63
2022-08-05T02:41:57.665Z,49.93
2022-08-05T02:42:27.344Z,50.74
2022-08-05T02:42:54.047Z,50.83
2022-08-05T02:43:18.145Z,51.37
2022-08-05T02:44:02.532Z,51.13
2022-08-05T02:44:28.327Z,51.06
2022-08-05T02:44:50.858Z,50.67
2022-08-05T02:45:16.227Z,50.32
2022-08-05T02:45:52.484Z,50.38
2022-08-05T02:46:17.671Z,50.92
2022-08-05T02:46:58.692Z,50.81
2022-08-05T02:47:24.728Z,51.59
2022-08-05T02:48:12.554Z,51.21
2022-08-05T02:48:35.425Z,51.18
2022-08-05T02:48:58.772Z,51.04
2022-08-05T02:49:22.422Z,50.85
2022-08-05T02:49:46.793Z,52.00
2022-08-05T02:50:13.630Z,51.77
2022-08-05T02:50:44.025Z,51.08
2022-08-05T02:51:06.498Z,52.04
2022-08-05T02:52:02.694Z,52.18
2022-08-05T02:52:30.233Z,51.83
2022-08-05T02:52:53.749Z,51.67
2022-08-05T02:53:19.478Z,51.44
2022-08-05T02:53:42.405Z,52.18
2022-08-05T02:54:05.520Z,52.65
2022-08-05T02:54:35.047Z,52.78
2022-08-05T02:55:01.946Z,53.60
2022-08-05T02:55:53.959Z,53.05
2022-08-05T02:56:15.995Z,53.12
2022-08-05T02:56:46.048Z,53.25
2022-08-05T02:58:11.773Z,52.77
2022-08-05T02:58:12.049Z,53.12
2022-08-05T02:58:37.870Z,52.66
2022-08-05T02:59:07.285Z,52.53
2022-08-05T02:59:30.518Z,52.71
2022-08-05T03:00:13.706Z,53.58
2022-08-05T03:00:36.907Z,52.47
2022-08-05T03:01:02.625Z,52.23
2022-08-05T03:01:27.123Z,51.74
2022-08-05T03:01:51.994Z,52.81
2022-08-05T03:02:15.323Z,52.67
2022-08-05T03:02:39.561Z,52.20
2022-08-05T03:03:03.079Z,52.04
2022-08-05T03:03:33.823Z,52.25
2022-08-05T03:04:15.763Z,52.66
2022-08-05T03:04:39.865Z,51.94
2022-08-05T03:05:02.929Z,52.04
2022-08-05T03:06:55.503Z,52.08
2022-08-05T03:06:56.335Z,52.43
2022-08-05T03:06:57.160Z,51.76
2022-08-05T03:07:40.620Z,52.10
2022-08-05T03:08:08.555Z,53.23
2022-08-05T03:08:31.216Z,53.44
2022-08-05T03:08:53.903Z,52.61
2022-08-05T03:09:18.039Z,53.46
2022-08-05T03:09:59.308Z,52.98
2022-08-05T03:10:21.990Z,52.68
2022-08-05T03:11:53.117Z,52.13
2022-08-05T03:11:55.787Z,53.16
2022-08-05T03:12:29.529Z,53.84
2022-08-05T03:12:51.942Z,53.88
2022-08-05T03:13:16.705Z,54.11
2022-08-05T03:13:52.173Z,53.81
2022-08-05T03:14:22.546Z,52.89
2022-08-05T03:14:46.006Z,52.33
2022-08-05T03:15:12.273Z,52.91
2022-08-05T03:15:34.359Z,54.02
2022-08-05T03:15:57.588Z,54.06
2022-08-05T03:16:20.898Z,54.27
2022-08-05T03:16:43.526Z,54.28
2022-08-05T03:17:09.019Z,54.23
2022-08-05T03:17:30.844Z,53.71
2022-08-05T03:17:55.792Z,53.11
2022-08-05T03:18:18.867Z,52.73
2022-08-05T03:18:51.835Z,52.55
2022-08-05T03:19:29.497Z,52.74
2022-08-05T03:19:58.538Z,53.54
2022-08-05T03:20:20.324Z,53.96
2022-08-05T03:20:48.541Z,53.69
2022-08-05T03:21:11.816Z,53.66
2022-08-05T03:21:33.538Z,53.21
2022-08-05T03:22:16.371Z,54.11
2022-08-05T03:22:44.163Z,54.56
2022-08-05T03:23:10.226Z,54.46
2022-08-05T03:23:33.212Z,54.04
2022-08-05T03:23:57.776Z,54.12
2022-08-05T03:24:30.058Z,53.43
2022-08-05T03:24:52.715Z,53.83
2022-08-05T03:25:33.392Z,53.42
2022-08-05T03:26:29.913Z,53.38
2022-08-05T03:26:40.216Z,53.15
2022-08-05T03:27:02.034Z,53.00
2022-08-05T03:27:29.504Z,52.84
2022-08-05T03:28:02.095Z,52.97
2022-08-05T03:28:24.489Z,53.35
2022-08-05T03:28:46.484Z,53.19
2022-08-05T03:29:12.391Z,53.41
2022-08-05T03:29:46.064Z,53.77
2022-08-05T03:30:33.316Z,53.78
2022-08-05T03:30:56.397Z,54.23
2022-08-05T03:31:55.442Z,54.11
2022-08-05T03:32:01.599Z,54.06
2022-08-05T03:32:31.098Z,54.42
2022-08-05T03:32:55.330Z,54.32
2022-08-05T03:33:17.643Z,54.83
2022-08-05T03:33:50.916Z,54.61
2022-08-05T03:34:15.815Z,54.87
2022-08-05T03:34:38.750Z,54.96
2022-08-05T03:35:04.488Z,55.43
2022-08-05T03:35:28.143Z,54.53
2022-08-05T03:35:52.377Z,55.04
2022-08-05T03:36:14.186Z,54.90
2022-08-05T03:36:37.035Z,54.85
2022-08-05T03:37:03.203Z,54.44
2022-08-05T03:37:25.210Z,54.62
2022-08-05T03:37:47.156Z,54.34
2022-08-05T03:38:12.396Z,54.98
2022-08-05T03:38:41.132Z,55.47
2022-08-05T03:39:08.085Z,55.42
2022-08-05T03:39:58.542Z,55.61
2022-08-05T03:40:24.070Z,55.65
2022-08-05T03:40:48.444Z,55.09
2022-08-05T03:41:11.497Z,55.36
2022-08-05T03:41:38.665Z,55.61
2022-08-05T03:42:07.274Z,54.85
2022-08-05T03:42:31.987Z,54.94
2022-08-05T03:42:55.284Z,55.12
2022-08-05T03:44:08.241Z,55.28
2022-08-05T03:44:11.287Z,54.40
2022-08-05T03:44:34.567Z,53.86
2022-08-05T03:44:58.093Z,54.59
2022-08-05T03:45:22.769Z,54.46
2022-08-05T03:45:58.137Z,54.30
2022-08-05T03:46:21.609Z,54.16
2022-08-05T03:46:48.726Z,54.11
2022-08-05T03:47:10.887Z,54.43
2022-08-05T03:47:41.280Z,54.64
2022-08-05T03:48:05.060Z,54.46
2022-08-05T03:48:26.973Z,54.45
2022-08-05T03:48:49.812Z,53.93
2022-08-05T03:49:12.619Z,53.34
2022-08-05T03:49:51.437Z,53.66
2022-08-05T03:50:14.016Z,54.19
2022-08-05T03:50:43.688Z,54.24
2022-08-05T03:52:36.467Z,54.77
2022-08-05T03:52:48.332Z,54.75
2022-08-05T03:55:00.536Z,54.65
2022-08-05T03:55:51.364Z,53.65
2022-08-05T03:55:53.363Z,54.69
2022-08-05T03:56:09.962Z,54.38
2022-08-05T03:56:10.784Z,54.70
2022-08-05T03:56:41.407Z,53.76
2022-08-05T03:57:16.327Z,54.24
2022-08-05T03:57:42.070Z,53.90
2022-08-05T03:58:10.662Z,53.89
2022-08-05T03:58:37.000Z,53.65
2022-08-05T03:59:08.047Z,53.86
2022-08-05T03:59:46.814Z,53.89
2022-08-05T04:00:15.800Z,53.86
2022-08-05T04:00:42.066Z,53.32
2022-08-05T04:01:08.567Z,53.72
2022-08-05T04:01:37.581Z,54.27
2022-08-05T04:02:02.159Z,54.74
2022-08-05T04:02:38.469Z,54.82
2022-08-05T04:03:08.256Z,55.34
2022-08-05T04:04:10.218Z,54.66
2022-08-05T04:04:33.914Z,54.60
2022-08-05T04:04:58.392Z,54.25
2022-08-05T04:05:21.258Z,54.55
2022-08-05T04:05:45.549Z,54.33
2022-08-05T04:06:10.936Z,54.17
2022-08-05T04:06:34.795Z,54.32
2022-08-05T04:06:59.053Z,55.11
2022-08-05T04:07:22.641Z,55.23
2022-08-05T04:07:53.525Z,55.86
2022-08-05T04:08:34.595Z,55.51
2022-08-05T04:09:00.061Z,56.08
2022-08-05T04:09:26.486Z,55.84
2022-08-05T04:09:53.821Z,55.58
2022-08-05T04:10:17.604Z,54.46
2022-08-05T04:10:40.841Z,54.27
2022-08-05T04:11:03.086Z,54.21
2022-08-05T04:11:25.264Z,53.99
2022-08-05T04:12:24.600Z,54.14
2022-08-05T04:12:46.722Z,54.47
2022-08-05T04:13:08.730Z,54.45
2022-08-05T04:13:50.487Z,55.15
2022-08-05T04:14:17.858Z,54.79
2022-08-05T04:14:40.952Z,54.32
2022-08-05T04:15:06.894Z,53.94
2022-08-05T04:15:32.980Z,53.83
2022-08-05T04:16:03.374Z,54.27
2022-08-05T04:16:32.326Z,55.16
2022-08-05T04:16:54.939Z,54.52
2022-08-05T04:17:16.812Z,54.75
2022-08-05T04:17:56.624Z,54.63
2022-08-05T04:18:22.559Z,54.99
2022-08-05T04:18:47.571Z,54.14
2022-08-05T04:19:16.225Z,54.02
2022-08-05T04:19:44.131Z,54.07
2022-08-05T04:20:07.633Z,54.33
2022-08-05T04:20:32.505Z,54.59
2022-08-05T04:20:56.262Z,54.62
2022-08-05T04:22:09.545Z,54.89
2022-08-05T04:22:09.668Z,54.20
2022-08-05T04:22:33.556Z,54.32
2022-08-05T04:22:56.739Z,54.07
2022-08-05T04:23:19.756Z,53.88
2022-08-05T04:24:06.503Z,53.90
2022-08-05T04:24:30.869Z,54.15
2022-08-05T04:24:53.872Z,54.28
2022-08-05T04:25:15.957Z,54.34
2022-08-05T04:25:56.855Z,54.19
2022-08-05T04:26:19.297Z,54.56
2022-08-05T04:26:41.925Z,54.57
2022-08-05T04:27:03.774Z,54.64
2022-08-05T04:27:33.151Z,54.82
2022-08-05T04:28:11.294Z,54.84
2022-08-05T04:28:34.343Z,55.22
2022-08-05T04:28:56.577Z,54.57
2022-08-05T04:29:19.707Z,54.50
2022-08-05T04:29:41.782Z,54.22
2022-08-05T04:30:05.643Z,54.32
2022-08-05T04:30:27.392Z,54.20
2022-08-05T04:30:51.273Z,54.24
2022-08-05T04:31:12.980Z,53.73
2022-08-05T04:31:38.450Z,53.59
2022-08-05T04:32:00.541Z,54.17
2022-08-05T04:32:33.149Z,54.13
2022-08-05T04:32:55.167Z,54.40
2022-08-05T04:33:20.490Z,54.57
2022-08-05T04:34:18.975Z,55.05
2022-08-05T04:34:43.598Z,54.94
2022-08-05T04:35:06.720Z,54.54
2022-08-05T04:36:16.716Z,54.82
2022-08-05T04:36:45.634Z,54.93
2022-08-05T04:37:04.379Z,54.78
2022-08-05T04:38:01.669Z,54.10
2022-08-05T04:38:10.195Z,53.67
2022-08-05T04:38:39.479Z,53.23
2022-08-05T04:39:01.934Z,53.62
2022-08-05T04:39:24.681Z,53.55
2022-08-05T04:39:52.854Z,54.41
2022-08-05T04:40:19.407Z,54.37
2022-08-05T04:40:44.466Z,54.97
2022-08-05T04:41:13.669Z,54.66
2022-08-05T04:41:37.255Z,54.16
2022-08-05T04:42:00.452Z,54.19
2022-08-05T04:42:23.529Z,54.03
2022-08-05T04:42:48.187Z,54.20
2022-08-05T04:43:16.329Z,53.99
2022-08-05T04:43:46.603Z,53.86
2022-08-05T04:44:10.990Z,54.25
2022-08-05T04:44:32.651Z,54.56
2022-08-05T04:44:54.338Z,54.62
2022-08-05T04:45:31.217Z,55.05
2022-08-05T04:46:00.687Z,54.56
2022-08-05T04:46:27.955Z,54.66
2022-08-05T04:46:50.280Z,54.54
2022-08-05T04:47:20.044Z,54.85
2022-08-05T04:47:42.852Z,54.89
2022-08-05T04:48:10.354Z,55.50
2022-08-05T04:48:41.352Z,55.09
2022-08-05T04:49:03.680Z,54.85
2022-08-05T04:49:38.596Z,53.97
2022-08-05T04:50:11.564Z,54.81
2022-08-05T04:51:01.751Z,55.42
2022-08-05T04:51:20.663Z,55.06
2022-08-05T04:51:45.760Z,55.17
2022-08-05T04:52:08.889Z,55.06
2022-08-05T04:52:34.070Z,54.87
2022-08-05T04:52:56.212Z,54.86
2022-08-05T04:53:20.071Z,55.42
2022-08-05T04:53:42.427Z,55.30
2022-08-05T04:54:05.767Z,54.73
2022-08-05T04:54:28.509Z,54.43
2022-08-05T04:54:50.134Z,54.09
2022-08-05T04:55:14.377Z,53.85
2022-08-05T04:56:33.657Z,54.46
2022-08-05T04:56:34.655Z,55.13
2022-08-05T04:56:59.860Z,54.61
2022-08-05T04:57:21.839Z,54.96
2022-08-05T04:57:51.628Z,54.47
2022-08-05T04:58:21.564Z,54.05
2022-08-05T04:58:44.438Z,54.54
2022-08-05T04:59:21.806Z,54.56
2022-08-05T04:59:48.137Z,53.97
2022-08-05T05:00:12.406Z,53.99
2022-08-05T05:00:37.123Z,54.39
2022-08-05T05:01:00.148Z,54.26
2022-08-05T05:02:04.041Z,53.93
2022-08-05T05:02:07.316Z,54.15
2022-08-05T05:02:47.788Z,54.19
2022-08-05T05:03:12.012Z,53.70
2022-08-05T05:03:42.812Z,54.62
2022-08-05T05:04:05.783Z,54.13
2022-08-05T05:04:27.448Z,54.46
2022-08-05T05:04:50.496Z,54.24
2022-08-05T05:05:16.511Z,54.48
2022-08-05T05:06:39.694Z,53.97
2022-08-05T05:06:40.556Z,54.01
2022-08-05T05:07:09.378Z,54.03
2022-08-05T05:07:35.672Z,54.05
2022-08-05T05:08:02.090Z,54.12
2022-08-05T05:08:26.607Z,54.19
2022-08-05T05:08:52.140Z,53.70
2022-08-05T05:09:17.495Z,53.55
2022-08-05T05:09:40.079Z,53.95
2022-08-05T05:10:06.231Z,53.82
2022-08-05T05:10:29.673Z,53.94
2022-08-05T05:10:56.391Z,53.71
2022-08-05T05:11:18.304Z,53.15
2022-08-05T05:11:55.398Z,53.54
2022-08-05T05:12:19.515Z,53.62
2022-08-05T05:12:42.258Z,53.68
2022-08-05T05:13:04.583Z,54.31
2022-08-05T05:13:26.405Z,54.05
2022-08-05T05:13:55.361Z,54.50
2022-08-05T05:14:17.085Z,54.28
2022-08-05T05:14:51.256Z,53.82
2022-08-05T05:15:17.511Z,54.10
2022-08-05T05:16:01.863Z,53.94
2022-08-05T05:16:30.370Z,54.33
2022-08-05T05:16:52.153Z,54.49
2022-08-05T05:17:21.189Z,54.15
2022-08-05T05:17:57.158Z,54.13
2022-08-05T05:18:31.224Z,53.44
2022-08-05T05:19:17.572Z,53.69
2022-08-05T05:19:44.426Z,54.42
2022-08-05T05:20:10.839Z,54.28
2022-08-05T05:20:33.271Z,54.50
2022-08-05T05:20:55.829Z,54.71
2022-08-05T05:21:20.212Z,54.37
2022-08-05T05:21:41.910Z,54.21
2022-08-05T05:22:23.135Z,54.19
2022-08-05T05:22:47.452Z,54.19
2022-08-05T05:23:19.938Z,53.71
2022-08-05T05:24:03.927Z,53.53
2022-08-05T05:24:59.114Z,52.45
2022-08-05T05:25:15.966Z,53.15
2022-08-05T05:25:41.319Z,52.95
2022-08-05T05:26:03.314Z,52.82
2022-08-05T05:26:28.427Z,53.02
2022-08-05T05:26:54.589Z,53.50
2022-08-05T05:27:18.520Z,53.54
2022-08-05T05:27:45.592Z,53.42
2022-08-05T05:28:08.221Z,53.37
2022-08-05T05:28:31.087Z,53.10
2022-08-05T05:28:52.818Z,53.16
2022-08-05T05:29:16.207Z,53.88
2022-08-05T05:30:03.382Z,54.07
2022-08-05T05:30:31.357Z,53.73
2022-08-05T05:30:56.016Z,53.95
2022-08-05T05:31:18.558Z,53.51
2022-08-05T05:31:42.004Z,53.86
2022-08-05T05:32:08.116Z,53.22
2022-08-05T05:32:35.405Z,52.38
2022-08-05T05:33:00.986Z,52.84
2022-08-05T05:33:25.893Z,52.45
2022-08-05T05:34:01.887Z,52.27
2022-08-05T05:34:27.030Z,52.79
2022-08-05T05:34:49.040Z,53.02
2022-08-05T05:35:19.766Z,52.92
2022-08-05T05:35:42.790Z,52.71
2022-08-05T05:36:05.165Z,52.33
2022-08-05T05:36:28.381Z,52.48
2022-08-05T05:36:51.516Z,52.61
2022-08-05T05:37:14.978Z,52.14
2022-08-05T05:38:00.246Z,52.62
2022-08-05T05:38:27.485Z,53.02
2022-08-05T05:38:49.424Z,53.36
2022-08-05T05:39:11.239Z,53.13
2022-08-05T05:39:34.400Z,52.72
2022-08-05T05:39:58.785Z,52.28
2022-08-05T05:40:22.496Z,52.18
2022-08-05T05:40:49.884Z,52.63
2022-08-05T05:41:14.109Z,52.50
2022-08-05T05:41:40.132Z,52.73
2022-08-05T05:42:03.925Z,52.64
2022-08-05T05:42:25.618Z,52.54
2022-08-05T05:42:47.605Z,52.77
2022-08-05T05:43:11.889Z,52.90
2022-08-05T05:43:56.685Z,52.20
2022-08-05T05:44:36.516Z,53.15
2022-08-05T05:44:59.522Z,52.36
2022-08-05T05:45:21.884Z,52.48
2022-08-05T05:45:48.361Z,52.38
2022-08-05T05:46:17.315Z,52.68
2022-08-05T05:46:40.969Z,52.94
2022-08-05T05:47:21.888Z,52.89
2022-08-05T05:48:05.780Z,53.20
2022-08-05T05:48:27.974Z,53.63
2022-08-05T05:48:50.108Z,53.65
2022-08-05T05:49:22.542Z,53.43
2022-08-05T05:49:46.755Z,53.32
2022-08-05T05:50:19.910Z,52.75
2022-08-05T05:50:44.271Z,53.38
2022-08-05T05:51:14.960Z,53.86
2022-08-05T05:51:49.745Z,53.36
2022-08-05T05:52:13.398Z,52.81
2022-08-05T05:52:51.520Z,52.97
2022-08-05T05:53:21.350Z,53.84
2022-08-05T05:53:54.362Z,53.44
2022-08-05T05:54:21.072Z,53.00
2022-08-05T05:54:50.167Z,52.74
2022-08-05T05:55:14.416Z,53.69
2022-08-05T05:55:51.507Z,53.81
2022-08-05T05:56:26.048Z,53.60
2022-08-05T05:56:56.210Z,53.30
2022-08-05T05:57:19.789Z,53.00
2022-08-05T05:57:52.586Z,53.09
2022-08-05T05:58:15.735Z,53.54
2022-08-05T05:58:37.381Z,53.24
2022-08-05T05:59:05.240Z,52.86
2022-08-05T05:59:28.632Z,53.23
2022-08-05T05:59:51.432Z,54.08
2022-08-05T06:00:17.460Z,53.98
2022-08-05T06:00:39.128Z,53.94
2022-08-05T06:01:12.786Z,54.01
2022-08-05T06:01:37.897Z,53.92
2022-08-05T06:02:01.612Z,53.77
2022-08-05T06:02:32.738Z,53.19
2022-08-05T06:03:00.773Z,53.14
2022-08-05T06:03:53.887Z,52.75
2022-08-05T06:04:06.088Z,53.16
2022-08-05T06:04:28.768Z,52.73
2022-08-05T06:04:50.702Z,52.79
2022-08-05T06:05:16.658Z,52.71
2022-08-05T06:05:39.794Z,53.27
2022-08-05T06:06:06.595Z,53.59
2022-08-05T06:06:31.438Z,53.58
2022-08-05T06:06:57.325Z,52.95
2022-08-05T06:07:23.662Z,52.75
2022-08-05T06:08:04.309Z,53.25
2022-08-05T06:08:32.387Z,52.75
2022-08-05T06:08:54.487Z,52.93
2022-08-05T06:09:26.709Z,53.26
2022-08-05T06:10:04.718Z,52.37
2022-08-05T06:10:36.290Z,52.50
2022-08-05T06:10:58.505Z,52.53
2022-08-05T06:11:22.836Z,53.05
2022-08-05T06:11:58.975Z,53.17
2022-08-05T06:12:21.760Z,53.16
2022-08-05T06:12:49.882Z,52.98